Time;durP1;ratioP1;P1;durP2;ratioP2;P2;SDS_P1;SDS_P2;PMS_P1;PMS_P2;Temp;Humidity;BMP_temperature;BMP_pressure;BME280_temperature;BME280_humidity;BME280_pressure;Samples;Min_cycle;Max_cycle;Signal;HPM_P1;HPM_P2
2021/10/17 00:01:13;;;;;;;5.47;0.98;;;;;;;;;;4990692;28;20058;-89
2021/10/17 00:03:38;;;;;;;8.18;1.15;;;;;;;;;;4989639;28;20037;-90
2021/10/17 00:06:04;;;;;;;3.40;1.20;;;;;;;;;;4993023;28;20033;-88
2021/10/17 00:08:29;;;;;;;7.15;1.35;;;;;;;;;;4990392;28;20540;-88
2021/10/17 00:10:55;;;;;;;9.75;1.80;;;;;;;;;;4990931;28;20022;-88
2021/10/17 00:13:20;;;;;;;5.60;1.00;;;;;;;;;;4990538;28;20120;-89
2021/10/17 00:15:46;;;;;;;5.55;1.30;;;;;;;;;;4990278;28;20122;-88
2021/10/17 00:18:11;;;;;;;8.52;1.83;;;;;;;;;;4986392;28;20027;-87
2021/10/17 00:20:37;;;;;;;4.32;1.58;;;;;;;;;;4990812;28;20117;-86
2021/10/17 00:23:03;;;;;;;5.18;1.38;;;;;;;;;;4987420;28;20058;-87
2021/10/17 00:25:29;;;;;;;6.90;1.60;;;;;;;;;;4993187;28;20057;-88
2021/10/17 00:27:54;;;;;;;4.72;1.10;;;;;;;;;;4985153;28;20520;-88
2021/10/17 00:30:20;;;;;;;5.25;0.90;;;;;;;;;;4989142;28;20042;-87
2021/10/17 00:32:46;;;;;;;5.72;1.63;;;;;;;;;;4988293;28;20026;-87
2021/10/17 00:35:13;;;;;;;5.65;1.15;;;;;;;;;;4992862;28;20058;-87
2021/10/17 00:37:40;;;;;;;4.68;1.02;;;;;;;;;;4990337;28;20109;-88
2021/10/17 00:40:13;;;;;;;7.00;1.38;;;;;;;;;;4989526;28;20477;-87
2021/10/17 00:42:40;;;;;;;4.43;1.27;;;;;;;;;;4990018;28;20488;-88
2021/10/17 00:45:13;;;;;;;5.78;1.10;;;;;;;;;;4990429;28;20037;-88
2021/10/17 00:47:38;;;;;;;5.20;1.20;;;;;;;;;;4990225;28;20027;-88
2021/10/17 00:50:05;;;;;;;5.82;1.30;;;;;;;;;;4990361;28;20570;-88
2021/10/17 00:52:31;;;;;;;8.82;1.40;;;;;;;;;;4988193;28;20034;-87
2021/10/17 00:54:57;;;;;;;10.07;1.80;;;;;;;;;;4979676;28;20030;-88
2021/10/17 00:57:23;;;;;;;11.50;1.85;;;;;;;;;;4993909;28;20393;-88
2021/10/17 00:59:48;;;;;;;6.65;1.40;;;;;;;;;;4989950;28;20400;-88
2021/10/17 01:02:14;;;;;;;6.82;1.45;;;;;;;;;;4990150;28;20085;-87
2021/10/17 01:04:41;;;;;;;8.68;1.70;;;;;;;;;;4989525;28;20034;-87
2021/10/17 01:07:07;;;;;;;3.33;1.02;;;;;;;;;;4990275;28;20041;-88
2021/10/17 01:09:34;;;;;;;6.25;1.30;;;;;;;;;;4990267;28;20413;-87
2021/10/17 01:12:00;;;;;;;9.10;1.40;;;;;;;;;;4990671;28;20030;-87
2021/10/17 01:14:26;;;;;;;6.88;1.33;;;;;;;;;;4989978;28;20028;-87
2021/10/17 01:16:52;;;;;;;9.18;1.70;;;;;;;;;;4990156;28;20656;-88
2021/10/17 01:19:19;;;;;;;4.90;1.30;;;;;;;;;;4993107;28;20044;-87
2021/10/17 01:21:44;;;;;;;8.13;1.35;;;;;;;;;;4992681;28;20034;-87
2021/10/17 01:24:11;;;;;;;5.50;1.77;;;;;;;;;;4993647;28;20039;-87
2021/10/17 01:26:37;;;;;;;3.60;0.85;;;;;;;;;;4992081;28;20495;-88
2021/10/17 01:29:04;;;;;;;3.45;1.15;;;;;;;;;;4991305;28;20113;-87
2021/10/17 01:31:41;;;;;;;4.22;1.30;;;;;;;;;;4994198;28;20029;-87
2021/10/17 01:34:08;;;;;;;4.88;1.10;;;;;;;;;;4989660;28;20026;-88
2021/10/17 01:36:35;;;;;;;5.80;1.27;;;;;;;;;;4992247;28;20509;-87
2021/10/17 01:39:01;;;;;;;5.63;1.25;;;;;;;;;;4991472;28;20066;-88
2021/10/17 01:41:27;;;;;;;3.90;1.13;;;;;;;;;;4987228;28;20023;-88
2021/10/17 01:43:52;;;;;;;7.15;1.95;;;;;;;;;;4990160;28;20084;-87
2021/10/17 01:46:18;;;;;;;8.32;1.45;;;;;;;;;;4991932;28;20149;-86
2021/10/17 01:48:43;;;;;;;6.03;1.33;;;;;;;;;;4993414;28;20496;-87
2021/10/17 01:51:09;;;;;;;6.95;1.20;;;;;;;;;;4993923;28;20067;-86
2021/10/17 01:53:34;;;;;;;8.48;1.20;;;;;;;;;;4991798;28;20057;-87
2021/10/17 01:56:01;;;;;;;5.68;1.50;;;;;;;;;;4995126;28;20499;-87
2021/10/17 01:58:26;;;;;;;4.78;1.05;;;;;;;;;;4993448;28;20030;-88
2021/10/17 02:00:53;;;;;;;5.78;1.00;;;;;;;;;;4992473;28;20088;-87
2021/10/17 02:03:18;;;;;;;4.78;1.13;;;;;;;;;;4991633;28;20525;-87
2021/10/17 02:05:44;;;;;;;6.95;1.40;;;;;;;;;;4993271;28;20045;-87
2021/10/17 02:08:09;;;;;;;6.32;1.33;;;;;;;;;;4993829;28;20036;-87
2021/10/17 02:10:35;;;;;;;5.18;1.00;;;;;;;;;;4993669;28;20473;-88
2021/10/17 02:13:01;;;;;;;6.00;1.65;;;;;;;;;;4991776;28;20026;-87
2021/10/17 02:15:26;;;;;;;8.30;1.38;;;;;;;;;;4993667;28;20014;-87
2021/10/17 02:17:51;;;;;;;7.43;1.20;;;;;;;;;;4992037;28;20030;-87
2021/10/17 02:20:17;;;;;;;4.90;1.38;;;;;;;;;;4992953;28;20034;-89
2021/10/17 02:22:43;;;;;;;7.93;1.67;;;;;;;;;;4990587;28;20383;-88
2021/10/17 02:25:09;;;;;;;6.05;1.42;;;;;;;;;;4993135;28;20029;-87
2021/10/17 02:27:34;;;;;;;8.38;1.20;;;;;;;;;;4993217;28;20030;-87
2021/10/17 02:30:00;;;;;;;5.35;1.65;;;;;;;;;;4992508;28;20046;-87
2021/10/17 02:32:25;;;;;;;4.63;1.20;;;;;;;;;;4991063;28;20160;-86
2021/10/17 02:34:50;;;;;;;6.47;1.50;;;;;;;;;;4992108;28;20388;-88
2021/10/17 02:37:16;;;;;;;6.43;1.30;;;;;;;;;;4991862;28;20030;-87
2021/10/17 02:39:41;;;;;;;8.15;1.92;;;;;;;;;;4991306;28;20041;-88
2021/10/17 02:42:07;;;;;;;7.82;1.52;;;;;;;;;;4992986;28;20649;-88
2021/10/17 02:44:32;;;;;;;7.53;1.50;;;;;;;;;;4992681;28;20037;-88
2021/10/17 02:46:57;;;;;;;6.15;1.20;;;;;;;;;;4992482;28;20093;-88
2021/10/17 02:49:24;;;;;;;5.20;1.20;;;;;;;;;;4990884;28;20608;-87
2021/10/17 02:51:50;;;;;;;7.10;1.30;;;;;;;;;;4992858;28;20053;-87
2021/10/17 02:54:17;;;;;;;5.80;0.90;;;;;;;;;;4991790;28;20478;-88
2021/10/17 02:56:43;;;;;;;4.25;1.23;;;;;;;;;;4991302;28;20134;-87
2021/10/17 02:59:08;;;;;;;5.22;1.35;;;;;;;;;;4993043;28;20097;-88
2021/10/17 03:01:33;;;;;;;6.13;1.35;;;;;;;;;;4991239;28;20033;-87
2021/10/17 03:03:59;;;;;;;8.93;1.30;;;;;;;;;;4989810;28;20054;-86
2021/10/17 03:06:26;;;;;;;6.10;1.30;;;;;;;;;;4992363;28;20022;-88
2021/10/17 03:08:52;;;;;;;7.85;1.42;;;;;;;;;;4991302;28;20022;-87
2021/10/17 03:11:18;;;;;;;9.13;1.27;;;;;;;;;;4992180;28;20479;-87
2021/10/17 03:13:43;;;;;;;5.93;1.58;;;;;;;;;;4991591;28;20088;-87
2021/10/17 03:16:09;;;;;;;4.85;1.35;;;;;;;;;;4992472;28;20033;-88
2021/10/17 03:18:34;;;;;;;4.05;1.40;;;;;;;;;;4990985;28;20026;-87
2021/10/17 03:20:59;;;;;;;7.85;1.17;;;;;;;;;;4992085;28;20034;-87
2021/10/17 03:23:25;;;;;;;4.57;1.40;;;;;;;;;;4991573;28;20037;-87
2021/10/17 03:25:50;;;;;;;4.78;1.40;;;;;;;;;;4991569;28;20216;-87
2021/10/17 03:28:16;;;;;;;7.50;1.50;;;;;;;;;;4992194;28;20034;-86
2021/10/17 03:30:41;;;;;;;5.00;1.08;;;;;;;;;;4991397;28;20088;-87
2021/10/17 03:33:07;;;;;;;4.18;1.30;;;;;;;;;;4991483;28;20608;-88
2021/10/17 03:35:32;;;;;;;5.82;1.27;;;;;;;;;;4991082;28;20037;-88
2021/10/17 03:37:57;;;;;;;4.85;1.02;;;;;;;;;;4991823;28;20058;-87
2021/10/17 03:40:23;;;;;;;9.07;1.58;;;;;;;;;;4992051;28;20037;-87
2021/10/17 03:42:48;;;;;;;4.75;1.27;;;;;;;;;;4990041;28;20512;-87
2021/10/17 03:45:14;;;;;;;5.25;1.30;;;;;;;;;;4991432;28;20034;-87
2021/10/17 03:47:39;;;;;;;9.05;1.20;;;;;;;;;;5004719;28;20046;-87
2021/10/17 03:50:05;;;;;;;4.75;1.60;;;;;;;;;;4991624;28;20069;-87
2021/10/17 03:52:30;;;;;;;4.05;1.30;;;;;;;;;;4982736;28;20221;-87
2021/10/17 03:54:56;;;;;;;4.55;1.33;;;;;;;;;;4991093;28;20105;-87
2021/10/17 03:57:21;;;;;;;3.53;0.85;;;;;;;;;;4990622;28;20018;-86
2021/10/17 03:59:46;;;;;;;8.70;1.27;;;;;;;;;;4991472;28;20481;-86
2021/10/17 04:02:12;;;;;;;5.80;1.08;;;;;;;;;;4990766;28;20023;-87
2021/10/17 04:04:37;;;;;;;4.00;0.80;;;;;;;;;;4991301;28;20117;-86
2021/10/17 04:07:05;;;;;;;5.30;0.98;;;;;;;;;;4991244;28;20409;-86
2021/10/17 04:09:30;;;;;;;4.85;1.48;;;;;;;;;;4991077;28;20034;-87
2021/10/17 04:11:56;;;;;;;4.22;1.00;;;;;;;;;;4989817;28;20030;-87
2021/10/17 04:14:21;;;;;;;7.43;1.30;;;;;;;;;;4990549;28;20084;-87
2021/10/17 04:16:46;;;;;;;5.22;1.17;;;;;;;;;;4983431;28;20023;-86
2021/10/17 04:19:13;;;;;;;4.65;1.10;;;;;;;;;;4990770;28;20462;-87
2021/10/17 04:21:38;;;;;;;6.30;1.30;;;;;;;;;;4991041;28;20117;-87
2021/10/17 04:24:04;;;;;;;3.72;1.13;;;;;;;;;;4990426;28;20109;-87
2021/10/17 04:26:30;;;;;;;2.80;1.17;;;;;;;;;;4990894;28;20029;-86
2021/10/17 04:28:55;;;;;;;3.30;0.90;;;;;;;;;;4990968;28;20026;-86
2021/10/17 04:31:20;;;;;;;6.18;1.38;;;;;;;;;;4989695;28;20041;-86
2021/10/17 04:33:46;;;;;;;4.80;1.10;;;;;;;;;;4990364;28;20589;-87
2021/10/17 04:36:11;;;;;;;3.35;0.90;;;;;;;;;;4990759;28;20058;-87
2021/10/17 04:38:38;;;;;;;6.20;0.93;;;;;;;;;;4989601;28;20042;-87
2021/10/17 04:41:03;;;;;;;5.03;1.15;;;;;;;;;;4990369;28;20105;-88
2021/10/17 04:43:30;;;;;;;5.93;1.58;;;;;;;;;;4989794;28;20189;-87
2021/10/17 04:45:56;;;;;;;5.70;1.38;;;;;;;;;;4990925;28;20067;-87
2021/10/17 04:48:21;;;;;;;4.53;1.08;;;;;;;;;;4990133;28;20022;-87
2021/10/17 04:50:46;;;;;;;4.75;1.10;;;;;;;;;;4988861;28;20528;-88
2021/10/17 04:53:12;;;;;;;3.08;0.93;;;;;;;;;;4989553;28;20129;-88
2021/10/17 04:55:37;;;;;;;4.85;1.05;;;;;;;;;;4990554;28;20022;-86
2021/10/17 04:58:03;;;;;;;5.57;1.10;;;;;;;;;;4990591;28;20022;-87
2021/10/17 05:00:29;;;;;;;5.53;1.15;;;;;;;;;;4990575;28;20026;-86
2021/10/17 05:02:54;;;;;;;6.18;1.60;;;;;;;;;;4989978;28;20536;-87
2021/10/17 05:05:20;;;;;;;4.00;1.35;;;;;;;;;;4989397;28;20038;-86
2021/10/17 05:07:45;;;;;;;3.65;0.90;;;;;;;;;;4990200;28;20014;-87
2021/10/17 05:10:10;;;;;;;3.40;1.20;;;;;;;;;;4990051;28;20412;-87
2021/10/17 05:12:36;;;;;;;5.35;1.65;;;;;;;;;;4988795;28;20034;-87
2021/10/17 05:15:01;;;;;;;7.95;1.20;;;;;;;;;;4989831;28;20030;-87
2021/10/17 05:17:27;;;;;;;4.40;0.95;;;;;;;;;;4990203;28;20105;-87
2021/10/17 05:19:52;;;;;;;9.38;1.10;;;;;;;;;;4986511;28;20055;-87
2021/10/17 05:22:17;;;;;;;3.42;0.93;;;;;;;;;;4984543;28;20050;-86
2021/10/17 05:24:43;;;;;;;3.78;1.27;;;;;;;;;;4989826;28;20030;-87
2021/10/17 05:27:08;;;;;;;4.97;1.15;;;;;;;;;;4990487;28;20022;-87
2021/10/17 05:29:33;;;;;;;5.32;1.25;;;;;;;;;;4988574;28;20038;-87
2021/10/17 05:31:59;;;;;;;4.28;1.13;;;;;;;;;;4988670;28;20525;-87
2021/10/17 05:34:24;;;;;;;2.40;0.80;;;;;;;;;;4981672;28;20027;-87
2021/10/17 05:36:49;;;;;;;2.83;0.88;;;;;;;;;;4989671;28;20118;-87
2021/10/17 05:39:15;;;;;;;3.92;1.42;;;;;;;;;;4989837;28;20030;-87
2021/10/17 05:41:40;;;;;;;11.20;1.38;;;;;;;;;;4988950;28;20121;-88
2021/10/17 05:44:06;;;;;;;5.20;0.93;;;;;;;;;;4989537;28;20026;-88
2021/10/17 05:46:31;;;;;;;6.72;1.20;;;;;;;;;;4989602;28;20080;-90
2021/10/17 05:48:57;;;;;;;8.02;1.42;;;;;;;;;;4988478;28;20042;-89
2021/10/17 05:51:22;;;;;;;5.25;1.20;;;;;;;;;;4988939;28;20030;-89
2021/10/17 05:53:48;;;;;;;5.88;1.27;;;;;;;;;;4985059;28;20035;-88
2021/10/17 05:56:13;;;;;;;6.45;1.45;;;;;;;;;;4990313;28;20027;-88
2021/10/17 05:58:39;;;;;;;6.72;1.05;;;;;;;;;;4990170;28;20062;-88
2021/10/17 06:01:05;;;;;;;4.07;0.90;;;;;;;;;;4988784;28;20642;-89
2021/10/17 06:03:30;;;;;;;6.88;1.13;;;;;;;;;;4988980;28;20026;-88
2021/10/17 06:06:01;;;;;;;5.10;1.35;;;;;;;;;;4984887;28;20026;-90
2021/10/17 06:08:27;;;;;;;4.63;1.23;;;;;;;;;;4988511;28;20040;-90
2021/10/17 06:10:54;;;;;;;4.90;1.08;;;;;;;;;;4993209;28;20026;-89
2021/10/17 06:13:19;;;;;;;6.75;1.30;;;;;;;;;;4992526;28;20050;-90
2021/10/17 06:15:45;;;;;;;4.68;1.08;;;;;;;;;;4992649;28;20489;-91
2021/10/17 06:18:11;;;;;;;6.47;1.00;;;;;;;;;;4992579;28;20038;-89
2021/10/17 06:20:36;;;;;;;5.55;1.08;;;;;;;;;;4985035;28;20042;-89
2021/10/17 06:23:02;;;;;;;6.32;1.20;;;;;;;;;;4992827;28;20088;-89
2021/10/17 06:25:27;;;;;;;3.50;1.08;;;;;;;;;;4992125;28;20034;-88
2021/10/17 06:27:53;;;;;;;2.72;0.90;;;;;;;;;;4991134;28;20026;-89
2021/10/17 06:30:18;;;;;;;1.83;0.90;;;;;;;;;;4991572;28;20503;-90
2021/10/17 06:32:44;;;;;;;7.20;1.17;;;;;;;;;;4987666;28;20041;-89
2021/10/17 06:35:09;;;;;;;4.53;1.00;;;;;;;;;;4997461;28;20061;-89
2021/10/17 06:37:35;;;;;;;3.97;1.08;;;;;;;;;;4988150;28;20046;-89
2021/10/17 06:40:00;;;;;;;3.67;1.00;;;;;;;;;;4990628;28;20025;-89
2021/10/17 06:42:29;;;;;;;1.77;0.80;;;;;;;;;;4988217;28;20039;-88
2021/10/17 06:44:54;;;;;;;5.88;1.20;;;;;;;;;;4989281;28;20436;-89
2021/10/17 06:47:20;;;;;;;3.42;1.00;;;;;;;;;;4984016;28;20469;-88
2021/10/17 06:49:45;;;;;;;1.63;0.70;;;;;;;;;;4987156;28;20030;-89
2021/10/17 06:52:11;;;;;;;3.88;0.85;;;;;;;;;;4980525;28;20026;-90
2021/10/17 06:54:37;;;;;;;3.95;0.90;;;;;;;;;;4987051;28;20033;-89
2021/10/17 06:57:02;;;;;;;9.27;1.15;;;;;;;;;;4992176;28;20162;-88
2021/10/17 06:59:28;;;;;;;5.72;1.23;;;;;;;;;;4990582;28;20042;-90
2021/10/17 07:01:53;;;;;;;2.97;1.00;;;;;;;;;;4990611;28;20037;-88
2021/10/17 07:04:19;;;;;;;4.95;1.00;;;;;;;;;;4992383;28;20037;-89
2021/10/17 07:06:44;;;;;;;5.10;1.92;;;;;;;;;;4986918;28;20531;-92
2021/10/17 07:09:10;;;;;;;5.35;1.77;;;;;;;;;;4991513;28;20022;-89
2021/10/17 07:11:36;;;;;;;5.82;0.90;;;;;;;;;;4991293;28;20113;-87
2021/10/17 07:14:01;;;;;;;5.22;0.93;;;;;;;;;;4987941;28;20038;-89
2021/10/17 07:16:27;;;;;;;3.25;0.93;;;;;;;;;;4991571;28;20089;-89
2021/10/17 07:18:52;;;;;;;4.65;1.02;;;;;;;;;;4991011;28;20046;-87
2021/10/17 07:21:17;;;;;;;5.28;1.20;;;;;;;;;;4989370;28;20089;-87
2021/10/17 07:23:43;;;;;;;3.92;0.80;;;;;;;;;;4987227;28;20037;-88
2021/10/17 07:26:08;;;;;;;5.57;1.10;;;;;;;;;;4991033;28;20110;-87
2021/10/17 07:28:34;;;;;;;4.72;1.10;;;;;;;;;;4982268;28;20393;-89
2021/10/17 07:30:59;;;;;;;3.80;1.10;;;;;;;;;;4986328;28;20068;-88
2021/10/17 07:33:25;;;;;;;3.17;0.95;;;;;;;;;;4996127;28;20037;-88
2021/10/17 07:35:50;;;;;;;7.18;1.00;;;;;;;;;;4993600;28;20126;-89
2021/10/17 07:38:16;;;;;;;5.38;1.10;;;;;;;;;;4991434;28;20036;-88
2021/10/17 07:40:41;;;;;;;7.10;1.02;;;;;;;;;;4991240;28;20036;-87
2021/10/17 07:43:06;;;;;;;2.90;1.08;;;;;;;;;;4990260;28;20081;-88
2021/10/17 07:45:32;;;;;;;4.85;1.20;;;;;;;;;;4988979;28;20022;-89
2021/10/17 07:47:58;;;;;;;3.72;1.35;;;;;;;;;;4991396;28;20500;-88
2021/10/17 07:50:24;;;;;;;6.18;1.08;;;;;;;;;;4991840;28;20037;-89
2021/10/17 07:52:49;;;;;;;6.97;1.55;;;;;;;;;;4988261;28;20405;-87
2021/10/17 07:55:15;;;;;;;3.88;1.00;;;;;;;;;;4991548;28;20112;-88
2021/10/17 07:57:48;;;;;;;5.53;1.10;;;;;;;;;;4985437;28;20022;-88
2021/10/17 08:00:17;;;;;;;3.75;1.08;;;;;;;;;;4991034;28;20019;-88
2021/10/17 08:02:42;;;;;;;5.00;0.95;;;;;;;;;;4990661;28;20034;-89
2021/10/17 08:05:08;;;;;;;2.28;0.95;;;;;;;;;;4989559;28;20030;-88
2021/10/17 08:07:33;;;;;;;6.00;1.02;;;;;;;;;;4983939;28;20109;-89
2021/10/17 08:10:00;;;;;;;2.38;0.70;;;;;;;;;;4987449;28;20031;-88
2021/10/17 08:12:25;;;;;;;3.80;0.90;;;;;;;;;;4984265;28;20037;-89
2021/10/17 08:14:50;;;;;;;6.15;1.17;;;;;;;;;;4985990;28;20030;-90
2021/10/17 08:17:16;;;;;;;4.53;1.02;;;;;;;;;;4996562;28;20041;-88
2021/10/17 08:19:41;;;;;;;3.70;0.98;;;;;;;;;;4987343;28;20030;-88
2021/10/17 08:22:07;;;;;;;5.40;1.00;;;;;;;;;;4986417;28;20030;-88
2021/10/17 08:24:32;;;;;;;9.77;1.02;;;;;;;;;;4988016;28;20052;-88
2021/10/17 08:27:03;;;;;;;4.32;1.33;;;;;;;;;;4988800;28;20022;-88
2021/10/17 08:29:29;;;;;;;4.07;0.73;;;;;;;;;;4985454;28;20104;-88
2021/10/17 08:31:54;;;;;;;2.67;0.85;;;;;;;;;;4988173;28;20030;-87
2021/10/17 08:34:19;;;;;;;2.15;0.80;;;;;;;;;;4990614;28;20046;-87
2021/10/17 08:36:45;;;;;;;6.15;0.85;;;;;;;;;;4987831;28;20071;-88
2021/10/17 08:39:10;;;;;;;3.20;0.80;;;;;;;;;;4990200;28;20032;-88
2021/10/17 08:41:36;;;;;;;3.85;0.80;;;;;;;;;;4988489;28;20385;-89
2021/10/17 08:44:02;;;;;;;4.72;0.82;;;;;;;;;;4989569;28;20077;-88
2021/10/17 08:46:28;;;;;;;3.75;0.70;;;;;;;;;;4990637;28;20046;-88
2021/10/17 08:48:59;;;;;;;3.65;0.70;;;;;;;;;;4990061;28;20053;-88
2021/10/17 08:51:25;;;;;;;3.05;0.80;;;;;;;;;;4989981;28;20041;-88
2021/10/17 08:53:50;;;;;;;3.25;0.65;;;;;;;;;;4990632;28;20058;-89
2021/10/17 08:56:16;;;;;;;4.10;0.70;;;;;;;;;;4990411;28;20077;-88
2021/10/17 08:58:42;;;;;;;2.45;0.70;;;;;;;;;;4990416;28;20030;-88
2021/10/17 09:01:17;;;;;;;5.10;0.70;;;;;;;;;;4987665;28;20022;-88
2021/10/17 09:03:52;;;;;;;2.05;0.50;;;;;;;;;;4990367;28;20053;-88
2021/10/17 09:06:24;;;;;;;1.02;0.50;;;;;;;;;;4984366;28;20031;-89
2021/10/17 09:09:10;;;;;;;3.55;0.60;;;;;;;;;;4998732;28;20022;-89
2021/10/17 09:11:58;;;;;;;5.63;1.00;;;;;;;;;;4981522;28;20038;-91
2021/10/17 09:14:27;;;;;;;3.55;0.60;;;;;;;;;;5006059;28;20053;-91
2021/10/17 09:16:56;;;;;;;3.72;0.77;;;;;;;;;;4989278;28;20030;-91
2021/10/17 09:19:25;;;;;;;3.53;0.82;;;;;;;;;;4989912;28;20400;-92
2021/10/17 09:22:07;;;;;;;1.90;0.65;;;;;;;;;;4990026;28;20030;-90
2021/10/17 09:24:41;;;;;;;2.83;0.70;;;;;;;;;;5006435;28;20018;-92
2021/10/17 09:27:25;;;;;;;2.75;0.90;;;;;;;;;;4991860;28;20073;-91
2021/10/17 09:29:54;;;;;;;2.43;0.77;;;;;;;;;;5005393;28;20084;-91
2021/10/17 09:32:23;;;;;;;1.27;0.50;;;;;;;;;;4999526;28;20497;-91
2021/10/17 09:34:59;;;;;;;5.00;0.70;;;;;;;;;;4990194;28;20030;-90
2021/10/17 09:37:31;;;;;;;3.13;0.60;;;;;;;;;;4989327;28;20392;-92
2021/10/17 09:40:01;;;;;;;2.22;0.65;;;;;;;;;;4993678;28;20061;-90
2021/10/17 09:42:27;;;;;;;4.70;0.75;;;;;;;;;;5005475;28;20254;-91
2021/10/17 09:44:52;;;;;;;4.25;0.80;;;;;;;;;;5013312;28;20042;-91
2021/10/17 09:47:20;;;;;;;5.82;0.70;;;;;;;;;;5008295;28;20045;-91
2021/10/17 09:50:09;;;;;;;10.70;1.30;;;;;;;;;;4994884;28;20053;-91
2021/10/17 09:52:34;;;;;;;4.88;1.10;;;;;;;;;;4993171;28;20036;-91
2021/10/17 09:55:08;;;;;;;2.17;0.73;;;;;;;;;;4992411;28;20117;-92
2021/10/17 09:57:36;;;;;;;;;;;;;;;;;;5018557;28;20364;-91
2021/10/17 10:00:06;;;;;;;4.82;0.70;;;;;;;;;;4994155;28;20287;-92
2021/10/17 10:02:31;;;;;;;2.88;0.50;;;;;;;;;;4975990;28;20038;-92
2021/10/17 10:04:57;;;;;;;3.63;0.60;;;;;;;;;;4982512;28;20022;-91
2021/10/17 10:07:24;;;;;;;2.70;0.65;;;;;;;;;;4986065;28;20027;-92
2021/10/17 10:09:55;;;;;;;1.83;0.60;;;;;;;;;;4991519;28;20026;-93
2021/10/17 10:12:24;;;;;;;1.00;0.55;;;;;;;;;;4987685;28;20026;-91
2021/10/17 10:14:50;;;;;;;1.73;0.82;;;;;;;;;;4991903;28;20382;-91
2021/10/17 10:17:22;;;;;;;1.58;0.68;;;;;;;;;;4993196;28;20026;-91
2021/10/17 10:19:51;;;;;;;3.50;0.85;;;;;;;;;;4993562;28;20026;-91
2021/10/17 10:22:17;;;;;;;1.90;0.68;;;;;;;;;;4992995;28;20019;-90
2021/10/17 10:24:51;;;;;;;3.60;0.65;;;;;;;;;;4993274;28;20477;-91
2021/10/17 10:27:18;;;;;;;2.28;0.70;;;;;;;;;;4992534;28;20335;-91
2021/10/17 10:29:47;;;;;;;4.20;1.20;;;;;;;;;;4992969;28;20067;-90
2021/10/17 10:32:25;;;;;;;3.53;0.70;;;;;;;;;;4991262;28;20030;-91
2021/10/17 10:34:53;;;;;;;1.38;0.70;;;;;;;;;;5008790;28;20409;-90
2021/10/17 10:37:30;;;;;;;3.92;0.90;;;;;;;;;;5012165;28;20049;-90
2021/10/17 10:40:05;;;;;;;5.43;0.82;;;;;;;;;;4973522;28;20050;-90
2021/10/17 10:42:35;;;;;;;4.38;1.40;;;;;;;;;;4992823;28;20026;-90
2021/10/17 10:45:27;;;;;;;3.47;1.30;;;;;;;;;;5014141;28;20021;-90
2021/10/17 10:48:05;;;;;;;2.33;0.60;;;;;;;;;;4993035;28;20060;-89
2021/10/17 10:50:39;;;;;;;2.38;0.60;;;;;;;;;;4992448;28;20022;-89
2021/10/17 10:53:05;;;;;;;2.83;0.85;;;;;;;;;;4992531;28;20036;-89
2021/10/17 10:55:42;;;;;;;4.75;1.00;;;;;;;;;;4996538;28;20329;-89
2021/10/17 10:58:24;;;;;;;4.22;0.70;;;;;;;;;;5009063;28;20092;-90
2021/10/17 11:00:52;;;;;;;3.70;0.82;;;;;;;;;;4990370;28;20034;-90
2021/10/17 11:03:19;;;;;;;4.13;0.80;;;;;;;;;;4984804;28;20031;-90
2021/10/17 11:06:07;;;;;;;3.20;0.70;;;;;;;;;;4972740;28;20037;-91
2021/10/17 11:08:38;;;;;;;1.27;0.52;;;;;;;;;;4973540;28;20027;-91
2021/10/17 11:11:05;;;;;;;3.75;0.80;;;;;;;;;;4980734;28;20030;-90
2021/10/17 11:13:40;;;;;;;3.35;0.70;;;;;;;;;;4991866;28;20022;-90
2021/10/17 11:16:31;;;;;;;4.70;0.90;;;;;;;;;;4991706;28;20030;-91
2021/10/17 11:18:59;;;;;;;1.10;0.52;;;;;;;;;;4991765;28;20388;-90
2021/10/17 11:21:33;;;;;;;3.08;0.70;;;;;;;;;;4991824;28;20030;-91
2021/10/17 11:24:03;;;;;;;2.42;0.60;;;;;;;;;;4992659;28;20478;-91
2021/10/17 11:26:28;;;;;;;1.90;0.73;;;;;;;;;;4991462;28;20085;-90
2021/10/17 11:28:54;;;;;;;1.55;0.70;;;;;;;;;;5006759;28;20033;-91
2021/10/17 11:31:24;;;;;;;3.08;0.93;;;;;;;;;;5000290;28;20034;-91
2021/10/17 11:33:51;;;;;;;2.47;0.68;;;;;;;;;;4999228;28;20057;-91
2021/10/17 11:36:18;;;;;;;2.90;0.60;;;;;;;;;;4990288;28;20061;-91
2021/10/17 11:38:45;;;;;;;6.88;1.67;;;;;;;;;;4989515;28;20038;-91
2021/10/17 11:41:13;;;;;;;5.60;0.80;;;;;;;;;;4990115;28;20092;-91
2021/10/17 11:43:43;;;;;;;5.65;0.73;;;;;;;;;;4990333;28;20029;-90
2021/10/17 11:46:14;;;;;;;2.90;0.82;;;;;;;;;;4988566;28;20044;-90
2021/10/17 11:48:41;;;;;;;3.67;0.60;;;;;;;;;;4989816;28;20503;-91
2021/10/17 11:51:13;;;;;;;2.60;0.57;;;;;;;;;;4990035;28;20034;-90
2021/10/17 11:53:39;;;;;;;2.00;0.70;;;;;;;;;;4991073;28;20041;-91
2021/10/17 11:56:09;;;;;;;1.80;0.88;;;;;;;;;;4999006;28;20021;-90
2021/10/17 11:58:35;;;;;;;1.95;0.50;;;;;;;;;;5012228;28;20029;-91
2021/10/17 12:01:13;;;;;;;2.90;0.75;;;;;;;;;;4996922;28;20126;-90
2021/10/17 12:03:42;;;;;;;3.20;0.80;;;;;;;;;;4989858;28;20393;-90
2021/10/17 12:06:19;;;;;;;2.25;0.63;;;;;;;;;;4990884;28;20026;-90
2021/10/17 12:08:53;;;;;;;4.72;0.85;;;;;;;;;;4990091;28;20082;-91
2021/10/17 12:11:19;;;;;;;;;;;;;;;;;;4991349;28;20510;-91
2021/10/17 12:13:47;;;;;;;4.22;0.85;;;;;;;;;;4990604;28;20008;-91
2021/10/17 12:16:15;;;;;;;2.03;0.65;;;;;;;;;;4990520;28;20057;-91
2021/10/17 12:18:45;;;;;;;4.03;0.68;;;;;;;;;;4991254;28;20034;-91
2021/10/17 12:21:18;;;;;;;2.83;0.70;;;;;;;;;;4991713;28;20018;-91
2021/10/17 12:23:45;;;;;;;5.03;0.98;;;;;;;;;;4990320;28;20101;-89
2021/10/17 12:26:19;;;;;;;2.40;0.80;;;;;;;;;;4990173;28;20026;-91
2021/10/17 12:29:12;;;;;;;2.65;0.80;;;;;;;;;;4991415;28;20076;-90
2021/10/17 12:31:43;;;;;;;3.97;0.95;;;;;;;;;;4970859;28;20129;-91
2021/10/17 12:34:10;;;;;;;4.13;0.75;;;;;;;;;;4992506;28;20032;-91
2021/10/17 12:36:37;;;;;;;1.65;0.65;;;;;;;;;;5000849;28;20061;-90
2021/10/17 12:39:11;;;;;;;5.00;0.77;;;;;;;;;;4991304;28;20026;-89
2021/10/17 12:41:36;;;;;;;1.48;0.50;;;;;;;;;;4989933;28;20031;-90
2021/10/17 12:44:09;;;;;;;5.82;1.00;;;;;;;;;;4989126;28;20034;-90
2021/10/17 12:46:36;;;;;;;2.92;0.70;;;;;;;;;;4990173;28;20026;-90
2021/10/17 12:49:11;;;;;;;1.27;0.50;;;;;;;;;;4989728;28;20038;-91
2021/10/17 12:51:50;;;;;;;7.13;1.38;;;;;;;;;;4989991;28;20018;-91
2021/10/17 12:54:17;;;;;;;4.68;0.95;;;;;;;;;;4990783;28;20341;-90
2021/10/17 12:56:59;;;;;;;2.25;0.65;;;;;;;;;;5002448;28;20029;-90
2021/10/17 12:59:25;;;;;;;2.92;0.73;;;;;;;;;;4986035;28;20077;-89
2021/10/17 13:02:03;;;;;;;2.40;0.60;;;;;;;;;;4989706;28;20058;-91
2021/10/17 13:04:51;;;;;;;3.38;0.65;;;;;;;;;;4989263;28;20037;-91
2021/10/17 13:07:25;;;;;;;3.08;0.63;;;;;;;;;;4990762;28;20026;-91
2021/10/17 13:09:53;;;;;;;2.88;0.75;;;;;;;;;;4991177;28;20324;-91
2021/10/17 13:12:23;;;;;;;3.72;0.77;;;;;;;;;;4989336;28;20388;-89
2021/10/17 13:15:03;;;;;;;6.03;0.80;;;;;;;;;;4994612;28;20022;-90
2021/10/17 13:17:30;;;;;;;2.22;0.60;;;;;;;;;;5012344;28;20477;-89
2021/10/17 13:19:57;;;;;;;1.52;0.47;;;;;;;;;;4996128;28;20093;-90
2021/10/17 13:22:23;;;;;;;4.13;0.70;;;;;;;;;;4995295;28;20544;-90
2021/10/17 13:24:49;;;;;;;2.60;0.50;;;;;;;;;;4997695;28;20481;-90
2021/10/17 13:27:14;;;;;;;1.90;0.68;;;;;;;;;;4995985;28;20030;-90
2021/10/17 13:29:40;;;;;;;1.77;0.63;;;;;;;;;;4997129;28;20122;-90
2021/10/17 13:32:06;;;;;;;3.40;0.85;;;;;;;;;;4988313;28;20027;-89
2021/10/17 13:34:32;;;;;;;3.50;0.73;;;;;;;;;;4997144;28;20022;-89
2021/10/17 13:36:57;;;;;;;2.45;0.70;;;;;;;;;;4996645;28;20053;-89
2021/10/17 13:39:22;;;;;;;2.72;0.60;;;;;;;;;;4997285;28;20030;-90
2021/10/17 13:41:48;;;;;;;1.38;0.40;;;;;;;;;;4995735;28;20022;-91
2021/10/17 13:44:13;;;;;;;1.80;0.73;;;;;;;;;;4995534;28;20030;-89
2021/10/17 13:46:38;;;;;;;2.97;0.47;;;;;;;;;;4994824;28;20416;-88
2021/10/17 13:49:04;;;;;;;5.18;0.80;;;;;;;;;;4996089;28;20117;-89
2021/10/17 13:51:30;;;;;;;4.40;0.68;;;;;;;;;;4996245;28;20042;-89
2021/10/17 13:53:56;;;;;;;3.75;0.73;;;;;;;;;;4997027;28;20105;-88
2021/10/17 13:56:21;;;;;;;0.52;0.40;;;;;;;;;;4996383;28;20026;-88
2021/10/17 13:58:47;;;;;;;3.22;0.60;;;;;;;;;;4995271;28;20031;-89
2021/10/17 14:01:12;;;;;;;1.40;0.63;;;;;;;;;;4981458;28;20054;-89
2021/10/17 14:03:38;;;;;;;1.40;0.60;;;;;;;;;;4996867;28;20073;-88
2021/10/17 14:06:03;;;;;;;2.17;0.60;;;;;;;;;;4996743;28;20049;-87
2021/10/17 14:08:29;;;;;;;1.77;0.75;;;;;;;;;;4996199;28;20041;-89
2021/10/17 14:10:54;;;;;;;2.00;0.60;;;;;;;;;;4995416;28;20081;-89
2021/10/17 14:13:21;;;;;;;2.08;0.70;;;;;;;;;;4994926;28;20029;-88
2021/10/17 14:15:46;;;;;;;4.32;0.80;;;;;;;;;;4996659;28;20034;-89
2021/10/17 14:18:12;;;;;;;2.65;0.80;;;;;;;;;;4996490;28;20038;-89
2021/10/17 14:20:39;;;;;;;2.58;0.47;;;;;;;;;;4996315;28;20053;-89
2021/10/17 14:23:04;;;;;;;3.75;0.70;;;;;;;;;;4994896;28;20441;-90
2021/10/17 14:25:30;;;;;;;1.67;0.80;;;;;;;;;;5008967;28;20030;-88
2021/10/17 14:27:56;;;;;;;6.85;1.08;;;;;;;;;;4991995;28;20060;-88
2021/10/17 14:30:21;;;;;;;2.20;0.85;;;;;;;;;;4992997;28;20037;-89
2021/10/17 14:32:47;;;;;;;2.88;0.98;;;;;;;;;;4993099;28;20503;-88
2021/10/17 14:35:12;;;;;;;1.85;0.80;;;;;;;;;;4993054;28;20053;-89
2021/10/17 14:37:38;;;;;;;1.63;0.60;;;;;;;;;;4992801;28;20077;-89
2021/10/17 14:40:04;;;;;;;2.40;0.70;;;;;;;;;;4991663;28;20034;-88
2021/10/17 14:42:30;;;;;;;3.05;0.80;;;;;;;;;;4992693;28;20483;-88
2021/10/17 14:44:55;;;;;;;4.93;0.80;;;;;;;;;;4993208;28;20473;-89